createdAt,value
2022-10-09T00:04:56.508Z,61.61
2022-10-09T00:09:59.120Z,54.34
2022-10-09T00:15:01.838Z,60.09
2022-10-09T00:20:05.445Z,63.30
2022-10-09T00:25:08.362Z,56.10
2022-10-09T00:30:11.799Z,56.89
2022-10-09T00:35:14.474Z,59.74
2022-10-09T00:40:17.480Z,67.50
2022-10-09T00:45:21.910Z,62.90
2022-10-09T00:50:24.618Z,55.23
2022-10-09T00:55:29.927Z,57.31
2022-10-09T01:00:32.601Z,64.46
2022-10-09T01:06:05.057Z,57.64
2022-10-09T01:11:30.824Z,58.41
2022-10-09T01:16:39.745Z,65.67
2022-10-09T01:21:58.019Z,59.50
2022-10-09T01:27:09.507Z,55.69
2022-10-09T01:32:18.883Z,60.14
2022-10-09T01:37:23.340Z,66.71
2022-10-09T01:42:29.037Z,62.66
2022-10-09T01:47:31.790Z,54.91
2022-10-09T01:52:54.573Z,58.37
2022-10-09T01:58:21.705Z,65.08
2022-10-09T02:03:28.343Z,59.46
2022-10-09T02:08:33.387Z,54.84
2022-10-09T02:13:36.559Z,62.85
2022-10-09T02:18:48.599Z,61.69
2022-10-09T02:23:51.708Z,55.49
2022-10-09T02:28:54.814Z,59.84
2022-10-09T02:33:59.261Z,64.65
2022-10-09T02:39:02.789Z,57.50
2022-10-09T02:44:06.304Z,58.76
2022-10-09T02:49:09.082Z,64.86
2022-10-09T02:54:11.823Z,57.64
2022-10-09T02:59:14.460Z,63.07
2022-10-09T03:04:17.070Z,59.97
2022-10-09T03:09:19.686Z,56.67
2022-10-09T03:14:22.308Z,62.22
2022-10-09T03:19:24.945Z,66.03
2022-10-09T03:24:27.563Z,57.01
2022-10-09T03:29:30.273Z,58.03
2022-10-09T03:34:32.934Z,66.39
2022-10-09T03:39:35.541Z,60.31
2022-10-09T03:44:38.132Z,55.40
2022-10-09T03:49:40.728Z,61.17
2022-10-09T03:54:43.390Z,69.53
2022-10-09T03:59:46.053Z,61.41
2022-10-09T04:04:48.700Z,55.80
2022-10-09T04:09:51.452Z,60.39
2022-10-09T04:14:54.149Z,65.26
2022-10-09T04:19:57.286Z,59.48
2022-10-09T04:24:59.966Z,57.69
2022-10-09T04:30:02.656Z,65.48
2022-10-09T04:35:06.534Z,61.61
2022-10-09T04:40:09.679Z,54.02
2022-10-09T04:45:12.299Z,56.09
2022-10-09T04:50:15.519Z,59.30
2022-10-09T04:55:18.161Z,68.32
2022-10-09T05:00:20.907Z,63.39
2022-10-09T05:05:23.548Z,55.56
2022-10-09T05:10:26.193Z,57.89
2022-10-09T05:15:30.410Z,60.61
2022-10-09T05:20:33.123Z,68.72
2022-10-09T05:25:35.823Z,64.11
2022-10-09T05:30:41.466Z,56.52
2022-10-09T05:35:56.283Z,59.04
2022-10-09T05:41:05.030Z,67.07
2022-10-09T05:46:09.610Z,59.97
2022-10-09T05:51:18.607Z,56.01
2022-10-09T05:56:24.448Z,63.06
2022-10-09T06:01:31.111Z,62.23
2022-10-09T06:06:37.118Z,56.18
2022-10-09T06:11:40.813Z,63.70
2022-10-09T06:16:45.346Z,61.47
2022-10-09T06:21:49.341Z,56.89
2022-10-09T06:26:52.238Z,62.79
2022-10-09T06:31:54.871Z,62.09
2022-10-09T06:36:57.813Z,55.89
2022-10-09T06:42:00.538Z,60.13
2022-10-09T06:47:03.544Z,67.90
2022-10-09T06:52:06.679Z,60.51
2022-10-09T06:57:09.347Z,56.11
2022-10-09T07:02:12.006Z,65.40
2022-10-09T07:07:14.843Z,57.01
2022-10-09T07:12:17.474Z,57.46
2022-10-09T07:17:20.076Z,64.23
2022-10-09T07:22:26.850Z,59.79
2022-10-09T07:27:29.920Z,56.50
2022-10-09T07:32:32.641Z,63.32
2022-10-09T07:37:35.237Z,60.11
2022-10-09T07:42:37.880Z,58.82
2022-10-09T07:47:40.521Z,63.80
2022-10-09T07:52:43.137Z,60.33
2022-10-09T07:57:45.714Z,57.47
2022-10-09T08:02:48.645Z,62.76
2022-10-09T08:07:51.617Z,61.67
2022-10-09T08:12:54.294Z,57.05
2022-10-09T08:17:57.234Z,63.42
2022-10-09T08:22:59.983Z,59.14
2022-10-09T08:28:03.143Z,57.27
2022-10-09T08:33:06.355Z,59.98
2022-10-09T08:38:17.728Z,63.98
2022-10-09T08:43:35.173Z,58.21
2022-10-09T08:48:43.606Z,62.44
2022-10-09T08:53:53.399Z,60.26
2022-10-09T08:58:56.199Z,56.19
2022-10-09T09:04:33.555Z,60.41
2022-10-09T09:09:59.972Z,61.41
2022-10-09T09:15:02.557Z,55.35
2022-10-09T09:20:27.482Z,59.41
2022-10-09T09:25:39.603Z,62.13
2022-10-09T09:30:47.591Z,57.14
2022-10-09T09:36:09.266Z,59.65
2022-10-09T09:41:12.313Z,61.83
2022-10-09T09:46:19.139Z,55.26
2022-10-09T09:51:29.115Z,57.77
2022-10-09T09:56:53.273Z,59.33
2022-10-09T10:02:15.596Z,63.28
2022-10-09T10:07:50.248Z,58.44
2022-10-09T10:12:55.091Z,53.84
2022-10-09T10:18:01.582Z,58.28
2022-10-09T10:23:04.428Z,60.70
2022-10-09T10:28:18.689Z,61.96
2022-10-09T10:33:27.295Z,54.08
2022-10-09T10:38:35.201Z,54.78
2022-10-09T10:43:43.748Z,56.07
2022-10-09T10:48:47.977Z,57.22
2022-10-09T10:54:02.962Z,55.27
2022-10-09T10:59:37.859Z,51.46
2022-10-09T11:04:55.983Z,50.67
2022-10-09T11:10:01.344Z,51.96
2022-10-09T11:15:09.860Z,51.29
2022-10-09T11:20:33.980Z,53.00
2022-10-09T11:25:51.077Z,51.75
2022-10-09T11:31:16.857Z,48.50
2022-10-09T11:36:38.103Z,45.18
2022-10-09T11:41:42.328Z,41.92
2022-10-09T11:46:54.077Z,41.56
2022-10-09T11:52:15.671Z,37.94
2022-10-09T11:57:30.145Z,36.94
2022-10-09T12:02:33.182Z,37.71
2022-10-09T12:12:56.989Z,41.99
2022-10-09T12:17:59.691Z,43.27
2022-10-09T12:23:25.736Z,45.09
2022-10-09T12:28:58.405Z,46.48
2022-10-09T12:34:04.888Z,49.66
2022-10-09T12:39:24.532Z,46.39
2022-10-09T12:44:35.817Z,41.36
2022-10-09T12:49:38.939Z,39.73
2022-10-09T12:54:44.226Z,39.48
2022-10-09T12:59:48.514Z,39.45
2022-10-09T13:04:58.001Z,39.67
2022-10-09T13:10:17.081Z,40.65
2022-10-09T13:15:35.267Z,41.33
2022-10-09T13:20:38.123Z,42.11
2022-10-09T13:25:43.095Z,43.43
2022-10-09T13:30:45.905Z,44.50
2022-10-09T13:35:48.781Z,45.01
2022-10-09T13:40:51.683Z,45.72
2022-10-09T13:45:54.426Z,46.54
2022-10-09T13:50:59.283Z,46.96
2022-10-09T13:56:02.135Z,47.59
2022-10-09T14:01:04.956Z,48.12
2022-10-09T14:06:07.822Z,48.81
2022-10-09T14:11:10.599Z,49.53
2022-10-09T14:16:13.440Z,50.00
2022-10-09T14:21:16.138Z,50.58
2022-10-09T14:26:18.812Z,51.10
2022-10-09T14:31:21.944Z,51.00
2022-10-09T14:36:24.724Z,51.59
2022-10-09T14:41:27.624Z,51.96
2022-10-09T14:46:34.074Z,52.25
2022-10-09T14:51:39.055Z,52.65
2022-10-09T14:56:41.875Z,52.45
2022-10-09T15:01:44.690Z,50.93
2022-10-09T15:06:47.478Z,46.94
2022-10-09T15:11:50.410Z,44.73
2022-10-09T15:16:53.118Z,45.27
2022-10-09T15:21:55.744Z,45.67
2022-10-09T15:26:58.388Z,45.77
2022-10-09T15:32:02.218Z,46.69
2022-10-09T15:37:05.327Z,47.96
2022-10-09T15:42:07.938Z,49.20
2022-10-09T15:47:16.436Z,50.24
2022-10-09T15:52:19.571Z,51.12
2022-10-09T15:57:22.288Z,51.62
2022-10-09T16:02:25.059Z,51.94
2022-10-09T16:07:27.756Z,52.57
2022-10-09T16:12:30.406Z,53.00
2022-10-09T16:17:33.156Z,53.52
2022-10-09T16:22:35.801Z,53.81
2022-10-09T16:27:38.404Z,54.36
2022-10-09T16:32:41.118Z,54.97
2022-10-09T16:37:44.056Z,55.48
2022-10-09T16:42:46.958Z,56.31
2022-10-09T16:47:50.218Z,57.26
2022-10-09T16:52:53.686Z,57.92
2022-10-09T16:57:56.895Z,58.40
2022-10-09T17:02:59.797Z,59.25
2022-10-09T17:08:02.449Z,59.77
2022-10-09T17:13:05.094Z,60.09
2022-10-09T17:18:07.984Z,60.10
2022-10-09T17:23:10.692Z,60.20
2022-10-09T17:28:13.422Z,60.25
2022-10-09T17:33:19.600Z,60.27
2022-10-09T17:38:22.679Z,60.01
2022-10-09T17:43:25.317Z,59.60
2022-10-09T17:48:29.287Z,60.35
2022-10-09T17:53:32.640Z,60.51
2022-10-09T17:58:35.307Z,60.93
2022-10-09T18:03:38.314Z,60.86
2022-10-09T18:08:41.666Z,61.23
2022-10-09T18:13:45.987Z,72.85
2022-10-09T18:18:48.924Z,63.75
2022-10-09T18:23:51.597Z,52.39
2022-10-09T18:28:54.358Z,51.38
2022-10-09T18:33:58.869Z,52.42
2022-10-09T18:39:08.309Z,54.22
2022-10-09T18:44:17.741Z,55.71
2022-10-09T18:49:25.138Z,56.99
2022-10-09T18:54:29.026Z,58.19
2022-10-09T18:59:32.729Z,59.05
2022-10-09T19:04:35.485Z,60.22
2022-10-09T19:09:38.447Z,71.38
2022-10-09T19:14:41.083Z,64.33
2022-10-09T19:19:43.788Z,52.02
2022-10-09T19:24:46.589Z,52.24
2022-10-09T19:29:49.288Z,53.73
2022-10-09T19:34:52.103Z,55.49
2022-10-09T19:39:54.699Z,57.58
2022-10-09T19:44:58.199Z,58.60
2022-10-09T19:50:01.215Z,59.76
2022-10-09T19:55:04.183Z,71.08
2022-10-09T20:00:08.828Z,64.22
2022-10-09T20:05:11.556Z,52.88
2022-10-09T20:10:14.381Z,52.25
2022-10-09T20:15:17.405Z,54.18
2022-10-09T20:20:20.062Z,55.67
2022-10-09T20:25:22.953Z,57.01
2022-10-09T20:30:25.666Z,58.60
2022-10-09T20:35:28.264Z,59.96
2022-10-09T20:40:33.723Z,71.93
2022-10-09T20:45:41.541Z,65.53
2022-10-09T20:50:44.238Z,53.05
2022-10-09T20:55:46.862Z,52.63
2022-10-09T21:00:49.485Z,54.84
2022-10-09T21:05:52.438Z,56.43
2022-10-09T21:10:55.245Z,57.64
2022-10-09T21:15:57.936Z,58.94
2022-10-09T21:21:07.332Z,69.69
2022-10-09T21:26:15.590Z,63.38
2022-10-09T21:31:20.911Z,52.69
2022-10-09T21:36:50.776Z,52.99
2022-10-09T21:42:00.992Z,53.57
2022-10-09T21:47:03.918Z,56.01
2022-10-09T21:52:06.697Z,57.61
2022-10-09T21:57:09.599Z,59.18
2022-10-09T22:02:12.301Z,70.10
2022-10-09T22:07:14.997Z,63.41
2022-10-09T22:12:17.583Z,52.81
2022-10-09T22:17:20.291Z,52.86
2022-10-09T22:22:24.112Z,53.55
2022-10-09T22:27:26.938Z,55.72
2022-10-09T22:32:29.611Z,57.15
2022-10-09T22:37:32.222Z,59.78
2022-10-09T22:42:34.911Z,70.59
2022-10-09T22:47:37.519Z,63.90
2022-10-09T22:52:40.175Z,53.71
2022-10-09T22:57:42.854Z,53.24
2022-10-09T23:02:45.502Z,55.40
2022-10-09T23:07:48.113Z,56.37
2022-10-09T23:12:51.045Z,58.39
2022-10-09T23:17:53.961Z,70.46
2022-10-09T23:22:56.636Z,64.18
2022-10-09T23:27:59.271Z,53.40
2022-10-09T23:33:01.893Z,54.03
2022-10-09T23:38:04.595Z,55.27
2022-10-09T23:43:07.203Z,56.78
2022-10-09T23:48:09.889Z,59.01
2022-10-09T23:53:12.504Z,59.88
2022-10-09T23:58:19.851Z,70.95
